createdAt,value
2017-08-09T00:00:33.667Z,16.27
2017-08-09T00:03:02.358Z,16.26
2017-08-09T00:05:30.690Z,16.19
2017-08-09T00:07:59.028Z,16.17
2017-08-09T00:10:27.401Z,16.10
2017-08-09T00:12:56.690Z,16.13
2017-08-09T00:15:25.805Z,16.07
2017-08-09T00:17:54.131Z,16.18
2017-08-09T00:20:22.475Z,16.13
2017-08-09T00:22:50.835Z,16.11
2017-08-09T00:25:19.169Z,16.05
2017-08-09T00:27:47.514Z,16.06
2017-08-09T00:30:15.843Z,16.00
2017-08-09T00:32:44.186Z,15.95
2017-08-09T00:35:12.500Z,16.00
2017-08-09T00:37:40.866Z,16.07
2017-08-09T00:40:09.198Z,16.05
2017-08-09T00:42:37.521Z,16.10
2017-08-09T00:45:05.871Z,16.11
2017-08-09T00:47:34.192Z,16.11
2017-08-09T00:50:02.543Z,16.13
2017-08-09T00:52:30.881Z,16.18
2017-08-09T00:54:59.552Z,16.13
2017-08-09T00:57:27.870Z,16.13
2017-08-09T00:59:56.223Z,16.15
2017-08-09T01:02:24.627Z,16.23
2017-08-09T01:04:52.957Z,16.22
2017-08-09T01:07:21.312Z,16.22
2017-08-09T01:09:49.647Z,16.18
2017-08-09T01:12:18.694Z,16.18
2017-08-09T01:14:47.409Z,16.14
2017-08-09T01:17:16.564Z,16.14
2017-08-09T01:19:44.936Z,16.15
2017-08-09T01:22:13.269Z,16.17
2017-08-09T01:24:41.605Z,16.18
2017-08-09T01:27:09.942Z,16.13
2017-08-09T01:29:38.542Z,16.17
2017-08-09T01:32:06.864Z,16.10
2017-08-09T01:34:35.200Z,16.07
2017-08-09T01:37:03.569Z,16.08
2017-08-09T01:39:31.901Z,16.10
2017-08-09T01:42:00.256Z,16.02
2017-08-09T01:44:28.600Z,16.02
2017-08-09T01:46:57.704Z,16.07
2017-08-09T01:49:26.035Z,16.03
2017-08-09T01:51:54.371Z,16.05
2017-08-09T01:54:22.728Z,16.02
2017-08-09T01:56:51.820Z,16.07
2017-08-09T01:59:20.458Z,16.09
2017-08-09T02:01:48.845Z,16.03
2017-08-09T02:04:17.339Z,16.02
2017-08-09T02:06:45.666Z,15.98
2017-08-09T02:09:14.802Z,15.91
2017-08-09T02:11:43.145Z,15.79
2017-08-09T02:14:11.483Z,15.63
2017-08-09T02:16:39.828Z,15.71
2017-08-09T02:19:08.187Z,15.57
2017-08-09T02:21:37.688Z,15.58
2017-08-09T02:24:06.045Z,15.54
2017-08-09T02:26:35.147Z,15.44
2017-08-09T02:29:03.516Z,15.38
2017-08-09T02:31:31.859Z,15.32
2017-08-09T02:34:00.238Z,15.29
2017-08-09T02:36:28.572Z,15.25
2017-08-09T02:38:57.669Z,14.92
2017-08-09T02:41:26.033Z,14.93
2017-08-09T02:43:54.388Z,14.88
2017-08-09T02:46:22.724Z,14.84
2017-08-09T02:48:51.056Z,14.94
2017-08-09T02:51:19.645Z,14.82
2017-08-09T02:53:48.459Z,14.79
2017-08-09T02:56:17.538Z,14.68
2017-08-09T02:58:45.885Z,14.73
2017-08-09T03:01:14.205Z,14.69
2017-08-09T03:03:43.325Z,14.61
2017-08-09T03:06:11.648Z,14.71
2017-08-09T03:08:40.010Z,14.68
2017-08-09T03:11:08.388Z,14.80
2017-08-09T03:13:36.706Z,14.71
2017-08-09T03:16:05.049Z,14.81
2017-08-09T03:18:33.366Z,14.66
2017-08-09T03:21:01.696Z,14.65
2017-08-09T03:23:30.025Z,14.66
2017-08-09T03:25:58.743Z,14.66
2017-08-09T03:28:27.082Z,14.64
2017-08-09T03:30:55.424Z,14.62
2017-08-09T03:33:23.759Z,14.65
2017-08-09T03:35:52.843Z,14.64
2017-08-09T03:38:21.194Z,14.68
2017-08-09T03:40:49.524Z,14.63
2017-08-09T03:43:18.940Z,14.56
2017-08-09T03:45:47.265Z,14.57
2017-08-09T03:48:15.588Z,14.63
2017-08-09T03:50:43.950Z,14.60
2017-08-09T03:53:13.043Z,14.49
2017-08-09T03:55:41.377Z,14.52
2017-08-09T03:58:09.700Z,14.49
2017-08-09T04:00:38.434Z,14.52
2017-08-09T04:03:06.780Z,14.54
2017-08-09T04:05:36.469Z,14.31
2017-08-09T04:08:04.831Z,14.32
2017-08-09T04:10:33.180Z,14.28
2017-08-09T04:13:01.563Z,14.29
2017-08-09T04:15:29.925Z,14.26
2017-08-09T04:17:58.748Z,14.11
2017-08-09T04:20:27.073Z,14.22
2017-08-09T04:22:55.393Z,14.23
2017-08-09T04:25:23.723Z,14.17
2017-08-09T04:27:52.049Z,14.04
2017-08-09T04:30:20.398Z,14.02
2017-08-09T04:32:48.738Z,14.08
2017-08-09T04:35:17.112Z,14.07
2017-08-09T04:37:45.444Z,14.05
2017-08-09T04:40:13.786Z,14.02
2017-08-09T04:42:42.166Z,13.92
2017-08-09T04:45:10.560Z,13.82
2017-08-09T04:47:38.885Z,13.89
2017-08-09T04:50:07.269Z,13.90
2017-08-09T04:52:35.582Z,13.65
2017-08-09T04:55:03.917Z,13.60
2017-08-09T04:57:32.285Z,13.62
2017-08-09T05:00:01.183Z,13.58
2017-08-09T05:02:29.499Z,13.64
2017-08-09T05:04:57.855Z,13.60
2017-08-09T05:07:26.219Z,13.63
2017-08-09T05:09:54.559Z,13.69
2017-08-09T05:12:22.928Z,13.73
2017-08-09T05:14:51.271Z,13.81
2017-08-09T05:17:19.623Z,13.81
2017-08-09T05:19:47.958Z,13.94
2017-08-09T05:22:16.313Z,13.88
2017-08-09T05:24:44.676Z,13.96
2017-08-09T05:27:13.033Z,14.02
2017-08-09T05:29:41.377Z,14.02
2017-08-09T05:32:09.700Z,14.04
2017-08-09T05:34:38.819Z,14.10
2017-08-09T05:37:07.148Z,14.20
2017-08-09T05:39:35.496Z,14.35
2017-08-09T05:42:03.821Z,14.34
2017-08-09T05:44:32.136Z,14.43
2017-08-09T05:47:00.508Z,14.42
2017-08-09T05:49:28.831Z,14.50
2017-08-09T05:51:57.146Z,14.57
2017-08-09T05:54:25.501Z,14.75
2017-08-09T05:56:53.867Z,14.65
2017-08-09T05:59:22.205Z,14.71
2017-08-09T06:01:50.555Z,14.76
2017-08-09T06:04:19.664Z,14.77
2017-08-09T06:06:48.023Z,14.82
2017-08-09T06:09:16.355Z,14.86
2017-08-09T06:11:44.711Z,14.89
2017-08-09T06:14:13.050Z,15.00
2017-08-09T06:16:42.382Z,15.03
2017-08-09T06:19:11.489Z,15.15
2017-08-09T06:21:39.820Z,15.21
2017-08-09T06:24:08.174Z,15.24
2017-08-09T06:26:36.496Z,15.27
2017-08-09T06:29:04.837Z,15.26
2017-08-09T06:31:33.257Z,15.30
2017-08-09T06:34:01.622Z,15.35
2017-08-09T06:36:29.969Z,15.39
2017-08-09T06:38:58.322Z,15.48
2017-08-09T06:41:26.689Z,15.52
2017-08-09T06:43:55.493Z,15.56
2017-08-09T06:46:23.853Z,15.63
2017-08-09T06:48:53.017Z,15.62
2017-08-09T06:51:21.386Z,15.58
2017-08-09T06:53:49.720Z,15.70
2017-08-09T06:56:18.042Z,15.74
2017-08-09T06:58:46.393Z,15.79
2017-08-09T07:01:14.721Z,15.80
2017-08-09T07:03:43.071Z,15.83
2017-08-09T07:06:11.407Z,15.90
2017-08-09T07:08:39.760Z,15.96
2017-08-09T07:11:08.111Z,16.05
2017-08-09T07:13:36.455Z,16.10
2017-08-09T07:16:04.831Z,16.15
2017-08-09T07:18:33.161Z,16.20
2017-08-09T07:21:01.521Z,16.14
2017-08-09T07:23:29.868Z,16.21
2017-08-09T07:25:58.970Z,16.31
2017-08-09T07:28:27.325Z,16.29
2017-08-09T07:30:55.672Z,16.34
2017-08-09T07:33:24.026Z,16.41
2017-08-09T07:35:52.383Z,16.47
2017-08-09T07:38:21.496Z,16.54
2017-08-09T07:40:49.867Z,16.58
2017-08-09T07:43:18.211Z,16.63
2017-08-09T07:45:46.557Z,16.64
2017-08-09T07:48:14.909Z,16.77
2017-08-09T07:50:43.236Z,16.76
2017-08-09T07:53:12.079Z,16.82
2017-08-09T07:55:40.394Z,16.91
2017-08-09T07:58:08.737Z,16.97
2017-08-09T08:00:37.085Z,16.91
2017-08-09T08:03:05.402Z,16.91
2017-08-09T08:05:33.742Z,16.95
2017-08-09T08:08:02.075Z,17.01
2017-08-09T08:10:30.445Z,17.01
2017-08-09T08:12:58.786Z,17.05
2017-08-09T08:15:27.117Z,17.13
2017-08-09T08:17:55.470Z,17.21
2017-08-09T08:20:23.809Z,17.33
2017-08-09T08:22:52.186Z,17.45
2017-08-09T08:25:20.539Z,17.47
2017-08-09T08:27:48.890Z,17.44
2017-08-09T08:30:17.214Z,17.49
2017-08-09T08:32:45.598Z,17.45
2017-08-09T08:35:13.935Z,17.42
2017-08-09T08:37:42.287Z,17.47
2017-08-09T08:40:10.644Z,17.55
2017-08-09T08:42:38.968Z,17.58
2017-08-09T08:45:07.310Z,17.64
2017-08-09T08:47:35.628Z,17.71
2017-08-09T08:50:03.988Z,17.87
2017-08-09T08:52:32.340Z,17.97
2017-08-09T08:55:00.673Z,18.00
2017-08-09T08:57:29.045Z,18.03
2017-08-09T08:59:57.393Z,18.05
2017-08-09T09:02:25.755Z,18.07
2017-08-09T09:04:54.088Z,18.15
2017-08-09T09:07:22.453Z,18.17
2017-08-09T09:09:50.837Z,18.18
2017-08-09T09:12:19.171Z,18.28
2017-08-09T09:14:47.778Z,18.39
2017-08-09T09:17:16.106Z,18.51
2017-08-09T09:19:44.442Z,18.63
2017-08-09T09:22:12.821Z,18.70
2017-08-09T09:24:41.163Z,18.82
2017-08-09T09:27:09.552Z,18.92
2017-08-09T09:29:37.881Z,19.05
2017-08-09T09:32:06.244Z,19.16
2017-08-09T09:34:35.347Z,19.18
2017-08-09T09:37:03.678Z,19.20
2017-08-09T09:39:32.024Z,19.17
2017-08-09T09:42:00.379Z,19.23
2017-08-09T09:44:29.490Z,19.28
2017-08-09T09:46:57.847Z,19.31
2017-08-09T09:49:26.197Z,19.32
2017-08-09T09:51:54.527Z,19.44
2017-08-09T09:54:22.873Z,19.52
2017-08-09T09:56:51.218Z,19.53
2017-08-09T09:59:19.559Z,19.57
2017-08-09T10:01:47.893Z,19.67
2017-08-09T10:04:16.242Z,19.76
2017-08-09T10:06:44.594Z,19.77
2017-08-09T10:09:12.947Z,19.82
2017-08-09T10:11:41.602Z,19.85
2017-08-09T10:14:09.934Z,19.92
2017-08-09T10:16:39.034Z,19.96
2017-08-09T10:19:07.390Z,19.83
2017-08-09T10:21:35.708Z,20.03
2017-08-09T10:24:04.049Z,20.21
2017-08-09T10:26:32.389Z,20.29
2017-08-09T10:29:00.747Z,20.31
2017-08-09T10:31:29.117Z,20.39
2017-08-09T10:33:57.462Z,20.43
2017-08-09T10:36:25.814Z,20.37
2017-08-09T10:38:54.157Z,20.32
2017-08-09T10:41:22.476Z,20.21
2017-08-09T10:43:50.850Z,20.19
2017-08-09T10:46:19.172Z,20.25
2017-08-09T10:48:47.509Z,20.05
2017-08-09T10:51:15.862Z,19.94
2017-08-09T10:53:44.202Z,20.06
2017-08-09T10:56:12.585Z,20.09
2017-08-09T10:58:40.930Z,19.96
2017-08-09T11:01:09.263Z,20.00
2017-08-09T11:03:37.612Z,20.03
2017-08-09T11:06:05.972Z,19.93
2017-08-09T11:08:34.305Z,19.91
2017-08-09T11:11:03.442Z,19.94
2017-08-09T11:13:31.783Z,19.94
2017-08-09T11:16:00.132Z,20.04
2017-08-09T11:18:28.539Z,20.08
2017-08-09T11:20:56.866Z,20.17
2017-08-09T11:23:25.230Z,20.14
2017-08-09T11:25:53.571Z,20.10
2017-08-09T11:28:22.710Z,20.17
2017-08-09T11:30:51.046Z,20.18
2017-08-09T11:33:19.407Z,20.27
2017-08-09T11:35:47.746Z,20.38
2017-08-09T11:38:16.752Z,20.49
2017-08-09T11:40:45.215Z,20.61
2017-08-09T11:43:13.548Z,20.75
2017-08-09T11:45:41.885Z,20.79
2017-08-09T11:48:10.208Z,20.81
2017-08-09T11:50:38.566Z,20.90
2017-08-09T11:53:06.948Z,20.91
2017-08-09T11:55:35.315Z,21.04
2017-08-09T11:58:03.647Z,21.18
2017-08-09T12:00:31.955Z,21.31
2017-08-09T12:03:00.292Z,21.36
2017-08-09T12:05:28.643Z,21.41
2017-08-09T12:07:57.008Z,21.39
2017-08-09T12:10:25.338Z,21.43
2017-08-09T12:12:54.453Z,21.44
2017-08-09T12:15:22.792Z,21.52
2017-08-09T12:17:51.140Z,21.53
2017-08-09T12:20:19.496Z,21.55
2017-08-09T12:22:47.824Z,21.43
2017-08-09T12:25:16.184Z,21.46
2017-08-09T12:27:44.508Z,21.52
2017-08-09T12:30:13.473Z,21.56
2017-08-09T12:32:41.800Z,21.57
2017-08-09T12:35:10.156Z,21.60
2017-08-09T12:37:38.511Z,21.69
2017-08-09T12:40:06.850Z,21.67
2017-08-09T12:42:35.180Z,21.70
2017-08-09T12:45:03.490Z,21.65
2017-08-09T12:47:31.847Z,21.65
2017-08-09T12:50:00.178Z,21.69
2017-08-09T12:52:28.559Z,21.70
2017-08-09T12:54:56.902Z,21.76
2017-08-09T12:57:25.256Z,21.81
2017-08-09T12:59:53.577Z,21.82
2017-08-09T13:02:21.933Z,21.83
2017-08-09T13:04:56.155Z,21.85
2017-08-09T13:07:24.955Z,21.94
2017-08-09T13:09:53.280Z,21.99
2017-08-09T13:12:21.613Z,22.10
2017-08-09T13:14:49.955Z,22.22
2017-08-09T13:17:18.293Z,22.40
2017-08-09T13:19:46.640Z,22.63
2017-08-09T13:22:15.018Z,22.69
2017-08-09T13:24:43.367Z,22.80
2017-08-09T13:27:11.710Z,22.84
2017-08-09T13:29:40.039Z,22.89
2017-08-09T13:32:08.400Z,22.91
2017-08-09T13:34:36.710Z,22.92
2017-08-09T13:37:05.057Z,23.10
2017-08-09T13:39:33.371Z,23.24
2017-08-09T13:42:02.351Z,23.37
2017-08-09T13:44:30.698Z,23.32
2017-08-09T13:46:59.058Z,23.36
2017-08-09T13:49:27.497Z,23.23
2017-08-09T13:51:55.833Z,23.40
2017-08-09T13:54:24.209Z,23.66
2017-08-09T13:56:52.542Z,23.90
2017-08-09T13:59:20.901Z,24.13
2017-08-09T14:01:49.255Z,24.33
2017-08-09T14:04:17.585Z,23.92
2017-08-09T14:06:46.698Z,23.85
2017-08-09T14:09:15.027Z,23.67
2017-08-09T14:11:44.670Z,23.52
2017-08-09T14:14:13.507Z,23.56
2017-08-09T14:16:41.839Z,23.91
2017-08-09T14:19:11.032Z,24.16
2017-08-09T14:21:39.360Z,24.43
2017-08-09T14:24:08.097Z,24.55
2017-08-09T14:26:36.416Z,24.54
2017-08-09T14:29:04.760Z,24.75
2017-08-09T14:31:33.873Z,24.75
2017-08-09T14:34:02.208Z,24.89
2017-08-09T14:36:30.561Z,24.89
2017-08-09T14:38:58.903Z,24.74
2017-08-09T14:41:27.293Z,24.91
2017-08-09T14:43:55.619Z,25.04
2017-08-09T14:46:24.378Z,25.26
2017-08-09T14:48:52.708Z,25.63
2017-08-09T14:51:21.802Z,25.75
2017-08-09T14:53:50.134Z,25.89
2017-08-09T14:56:18.506Z,26.15
2017-08-09T14:58:46.839Z,26.34
2017-08-09T15:01:15.169Z,26.70
2017-08-09T15:03:43.628Z,27.01
2017-08-09T15:06:13.101Z,27.12
2017-08-09T15:08:41.422Z,27.13
2017-08-09T15:11:09.800Z,26.72
2017-08-09T15:13:38.853Z,26.83
2017-08-09T15:16:07.195Z,26.91
2017-08-09T15:18:35.518Z,27.39
2017-08-09T15:21:03.871Z,27.02
2017-08-09T15:23:32.942Z,26.63
2017-08-09T15:26:01.299Z,26.49
2017-08-09T15:28:29.627Z,26.40
2017-08-09T15:30:57.971Z,26.43
2017-08-09T15:33:26.298Z,26.34
2017-08-09T15:35:54.644Z,26.74
2017-08-09T15:38:23.006Z,26.91
2017-08-09T15:40:51.365Z,26.98
2017-08-09T15:43:19.708Z,27.08
2017-08-09T15:45:48.058Z,27.20
2017-08-09T15:48:16.415Z,27.37
2017-08-09T15:50:44.753Z,26.86
2017-08-09T15:53:13.116Z,26.86
2017-08-09T15:55:41.429Z,26.76
2017-08-09T15:58:09.783Z,26.65
2017-08-09T16:00:38.109Z,26.62
2017-08-09T16:03:06.464Z,26.23
2017-08-09T16:05:35.297Z,26.02
2017-08-09T16:08:03.660Z,25.91
2017-08-09T16:10:32.012Z,25.85
2017-08-09T16:13:01.162Z,25.85
2017-08-09T16:15:29.524Z,25.89
2017-08-09T16:17:57.867Z,25.83
2017-08-09T16:20:26.225Z,25.72
2017-08-09T16:22:54.565Z,25.52
2017-08-09T16:25:23.339Z,25.40
2017-08-09T16:27:51.678Z,25.46
2017-08-09T16:30:20.028Z,25.27
2017-08-09T16:32:48.802Z,25.34
2017-08-09T16:35:17.155Z,25.36
2017-08-09T16:37:45.490Z,25.24
2017-08-09T16:40:13.861Z,25.15
2017-08-09T16:42:42.240Z,24.99
2017-08-09T16:45:10.580Z,24.90
2017-08-09T16:47:39.682Z,24.86
2017-08-09T16:50:08.024Z,24.72
2017-08-09T16:52:36.399Z,24.61
2017-08-09T16:55:04.752Z,24.46
2017-08-09T16:57:33.122Z,24.41
2017-08-09T17:00:01.461Z,24.53
2017-08-09T17:02:31.093Z,24.65
2017-08-09T17:04:59.419Z,24.65
2017-08-09T17:07:27.775Z,24.76
2017-08-09T17:09:56.122Z,24.85
2017-08-09T17:12:25.054Z,24.83
2017-08-09T17:14:53.399Z,24.75
2017-08-09T17:17:21.785Z,24.80
2017-08-09T17:19:50.139Z,24.61
2017-08-09T17:22:19.226Z,24.58
2017-08-09T17:24:47.596Z,24.46
2017-08-09T17:27:15.953Z,24.46
2017-08-09T17:29:44.318Z,24.39
2017-08-09T17:32:12.640Z,24.35
2017-08-09T17:34:40.989Z,24.30
2017-08-09T17:37:09.353Z,24.17
2017-08-09T17:39:37.691Z,24.08
2017-08-09T17:42:06.808Z,23.85
2017-08-09T17:44:35.145Z,23.70
2017-08-09T17:47:03.506Z,23.53
2017-08-09T17:49:31.831Z,23.48
2017-08-09T17:52:00.956Z,23.26
2017-08-09T17:54:31.914Z,23.08
2017-08-09T17:57:01.491Z,22.82
2017-08-09T17:59:30.067Z,22.85
2017-08-09T18:01:58.395Z,22.70
2017-08-09T18:04:27.307Z,22.62
2017-08-09T18:06:55.649Z,22.43
2017-08-09T18:09:24.023Z,22.37
2017-08-09T18:11:52.354Z,22.33
2017-08-09T18:14:21.115Z,22.18
2017-08-09T18:16:49.816Z,22.11
2017-08-09T18:19:18.512Z,22.01
2017-08-09T18:21:47.003Z,21.79
2017-08-09T18:24:17.357Z,21.54
2017-08-09T18:26:45.726Z,21.36
2017-08-09T18:29:14.154Z,21.32
2017-08-09T18:31:42.764Z,21.26
2017-08-09T18:34:11.094Z,21.08
2017-08-09T18:36:39.444Z,20.99
2017-08-09T18:39:07.825Z,20.89
2017-08-09T18:41:36.194Z,20.88
2017-08-09T18:44:04.561Z,20.89
2017-08-09T18:46:32.898Z,20.97
2017-08-09T18:49:01.538Z,20.82
2017-08-09T18:51:29.873Z,20.70
2017-08-09T18:53:58.653Z,20.75
2017-08-09T18:56:27.029Z,20.68
2017-08-09T18:58:55.383Z,20.56
2017-08-09T19:01:24.509Z,20.42
2017-08-09T19:03:52.867Z,20.39
2017-08-09T19:06:21.218Z,20.40
2017-08-09T19:08:49.600Z,20.37
2017-08-09T19:11:17.939Z,20.37
2017-08-09T19:13:46.368Z,20.27
2017-08-09T19:16:14.760Z,20.22
2017-08-09T19:18:43.128Z,20.26
2017-08-09T19:21:11.502Z,20.20
2017-08-09T19:23:39.888Z,20.16
2017-08-09T19:26:08.220Z,20.17
2017-08-09T19:28:36.583Z,20.10
2017-08-09T19:31:05.302Z,19.98
2017-08-09T19:33:33.653Z,19.91
2017-08-09T19:36:02.866Z,19.97
2017-08-09T19:38:31.611Z,19.96
2017-08-09T19:41:01.240Z,20.10
2017-08-09T19:43:29.683Z,20.08
2017-08-09T19:45:58.035Z,19.93
2017-08-09T19:48:26.408Z,19.77
2017-08-09T19:50:54.789Z,19.71
2017-08-09T19:53:23.148Z,19.70
2017-08-09T19:55:51.478Z,19.69
2017-08-09T19:58:19.827Z,19.57
2017-08-09T20:00:48.666Z,19.61
2017-08-09T20:03:17.038Z,19.48
2017-08-09T20:05:45.443Z,19.41
2017-08-09T20:08:13.811Z,19.46
2017-08-09T20:10:42.857Z,19.45
2017-08-09T20:13:11.321Z,19.37
2017-08-09T20:15:39.832Z,19.28
2017-08-09T20:18:08.184Z,19.23
2017-08-09T20:20:36.594Z,19.21
2017-08-09T20:23:04.962Z,19.30
2017-08-09T20:25:33.349Z,19.37
2017-08-09T20:28:02.169Z,19.29
2017-08-09T20:30:30.509Z,19.30
2017-08-09T20:32:58.916Z,19.22
2017-08-09T20:35:27.247Z,19.19
2017-08-09T20:37:55.631Z,19.17
2017-08-09T20:40:24.655Z,19.18
2017-08-09T20:42:52.991Z,19.05
2017-08-09T20:45:21.345Z,19.06
2017-08-09T20:47:49.684Z,19.08
2017-08-09T20:50:18.432Z,19.11
2017-08-09T20:52:46.773Z,18.82
2017-08-09T20:55:15.113Z,18.95
2017-08-09T20:57:46.167Z,18.99
2017-08-09T21:00:14.516Z,18.92
2017-08-09T21:02:42.874Z,18.69
2017-08-09T21:05:11.685Z,18.52
2017-08-09T21:07:40.047Z,18.41
2017-08-09T21:10:09.180Z,18.28
2017-08-09T21:12:37.519Z,18.17
2017-08-09T21:15:05.880Z,18.09
2017-08-09T21:17:34.204Z,18.08
2017-08-09T21:20:03.336Z,17.93
2017-08-09T21:22:32.246Z,18.05
2017-08-09T21:25:00.989Z,18.12
2017-08-09T21:27:29.320Z,17.96
2017-08-09T21:29:57.701Z,18.07
2017-08-09T21:32:26.050Z,17.94
2017-08-09T21:34:54.392Z,17.81
2017-08-09T21:37:23.580Z,17.90
2017-08-09T21:39:51.897Z,17.80
2017-08-09T21:42:20.493Z,17.80
2017-08-09T21:44:48.839Z,17.86
2017-08-09T21:47:17.943Z,17.94
2017-08-09T21:49:46.276Z,17.97
2017-08-09T21:52:14.592Z,18.06
2017-08-09T21:54:43.701Z,18.08
2017-08-09T21:57:12.018Z,17.96
2017-08-09T21:59:40.744Z,17.98
2017-08-09T22:02:09.800Z,18.02
2017-08-09T22:04:39.018Z,18.03
2017-08-09T22:07:08.573Z,18.06
2017-08-09T22:09:36.946Z,17.98
2017-08-09T22:12:05.367Z,18.03
2017-08-09T22:14:33.695Z,17.80
2017-08-09T22:17:03.131Z,17.80
2017-08-09T22:19:31.455Z,17.65
2017-08-09T22:21:59.790Z,17.73
2017-08-09T22:24:28.149Z,17.72
2017-08-09T22:26:56.491Z,17.47
2017-08-09T22:29:24.834Z,17.45
2017-08-09T22:31:53.159Z,17.58
2017-08-09T22:34:21.508Z,17.65
2017-08-09T22:36:49.846Z,17.62
2017-08-09T22:39:18.189Z,17.53
2017-08-09T22:41:46.752Z,17.48
2017-08-09T22:44:15.084Z,17.51
2017-08-09T22:46:43.424Z,17.44
2017-08-09T22:49:11.743Z,17.54
2017-08-09T22:51:40.441Z,17.42
2017-08-09T22:54:08.769Z,17.38
2017-08-09T22:56:37.088Z,17.40
2017-08-09T22:59:06.212Z,17.45
2017-08-09T23:01:34.541Z,17.51
2017-08-09T23:04:02.890Z,17.49
2017-08-09T23:06:31.207Z,17.39
2017-08-09T23:09:00.581Z,17.27
2017-08-09T23:11:28.911Z,17.27
2017-08-09T23:13:57.228Z,17.27
2017-08-09T23:16:25.560Z,17.35
2017-08-09T23:18:53.893Z,17.26
2017-08-09T23:21:22.247Z,17.34
2017-08-09T23:23:51.268Z,17.36
2017-08-09T23:26:19.622Z,17.27
2017-08-09T23:28:47.961Z,17.30
2017-08-09T23:31:16.286Z,17.49
2017-08-09T23:33:44.627Z,17.39
2017-08-09T23:36:13.730Z,17.31
2017-08-09T23:38:42.076Z,17.19
2017-08-09T23:41:10.411Z,17.14
2017-08-09T23:43:38.770Z,17.12
2017-08-09T23:46:07.123Z,17.06
2017-08-09T23:48:35.431Z,17.10
2017-08-09T23:51:04.205Z,17.18
2017-08-09T23:53:33.421Z,17.13
2017-08-09T23:56:02.196Z,17.06
2017-08-09T23:58:31.283Z,17.09
